Flugplatz Schmallenberg-Rennefeld (EDKR)

Hier findest Du alle Informationen zum Flugplatz Schmallenberg-Rennefeld (EDKR).

Informationen für Piloten zum Flugplatz Schmallenberg-Rennefeld

Hier findest Du alle relevanten Informationen, die Du als Pilot benötigst, um Schmallenberg-Rennefeld anzufliegen.

Flugplatz: Schmallenberg-Rennefeld ICAO-Code: EDKR
Frequenz Turm: 122,425 Mhz GAFOR Gebiet: 36
Frequenz Ground: 122,425 Mhz Mogas: nein
Platzrunde: N 2200 ft Landegebühr: -
Platzhöhe: - Sunrise: 03:16 Uhr UTC
Pisten: 10/28 - 620 m x 30 m, GRAS Sunset: 19:46 Uhr UTC

Mitglieder, die in Schmallenberg-Rennefeld fliegen

Flugwetter am Flugplatz Schmallenberg-Rennefeld

Die METAR Information stammen aus EDGS (51.92 km entfernt).

METAR Code:
2022/07/04 19:20
EDGS 041920Z AUTO 31005KT 9999 // NCD 17/07 Q1020

Flugschulen am Flugplatz Schmallenberg-Rennefeld

Am Flugplatz Schmallenberg-Rennefeld gibt es leider keine Flugschule.

Benachbarte Flugplätze und Flugschulen

Es gibt 21 weitere Flugplätze in einem Umkreis von 50 km um den Flugplatz Schmallenberg-Rennefeld.

Jetzt anmelden

Passwort vergessen

Umfrage Archiv

Sendet Ihr ADS-B und/oder FLARM?

Ja
83.3 %
Nein
16.7 %
Stimmen: 180 | Diskussion
Anzeige: Roland Aircraft
Statistik Alle Mitglieder

Aktuell sind 51 Besucher online, davon 1 Mitglied und 50 Gäste.


Mitglieder online:
Heli 

Anzeige: ULPower Aero Engines Anzeige: Pocket FMS